Thursday, October 19, 2017, 6:59 AM EDT
Back to Local

KAGC, Pittsburgh Allegheny Cty.

Location: West Mifflin, PA, United States Lat: 40.35
Local Time: 6:59 AM EDT (10:59 GMT) Lon: -79.917
Time Zone: US/Eastern Elev: 1253 ft

Show me the last for .
Show Coded

Time T Td Feel RH Dir Speed Gust Alt SLP Vis Weather Sky Remarks
2017-10-19 05:53 48 36 44 62 180° 8 - 30.21 30.22 10 CLR None
2017-10-19 04:53 46 40 41 79 170° 9 - 30.20 30.21 9 CLR None
2017-10-19 03:53 49 37 45 63 180° 8 - 30.21 30.21 10 CLR None
2017-10-19 02:53 49 38 45 65 170° 8 - 30.21 30.21 10 CLR None
2017-10-19 01:53 52 37 - 56 200° 7 - 30.21 30.21 10 CLR 6-hr Min Temp (2am): 51.1°F
6-hr Max Temp (2am): 64.9°F
2017-10-19 00:53 53 38 - 56 180° 8 - 30.20 30.21 10 CLR 24-hr Min Temp (1am): 39.9°F
24-hr Max Temp (1am): 70.0°F
2017-10-18 23:53 52 41 - 66 160° 8 - 30.21 30.22 10 CLR None
2017-10-18 22:53 55 42 - 61 160° 7 - 30.22 30.23 10 CLR None
2017-10-18 21:53 56 41 - 57 160° 7 - 30.23 30.24 10 CLR None
2017-10-18 20:53 63 37 - 38 190° 5 - 30.23 30.24 10 CLR None
2017-10-18 19:53 65 36 - 34 210° 3 - 30.22 30.24 10 CLR 6-hr Min Temp (8pm): 64.9°F
6-hr Max Temp (8pm): 70.0°F
2017-10-18 18:53 66 37 - 34 210° 6 - 30.23 30.24 10 CLR None
2017-10-18 17:53 68 38 - 33 200° 6 - 30.22 30.23 10 CLR None
2017-10-18 16:53 69 36 - 29 200° 12 - 30.23 30.24 10 CLR None
2017-10-18 15:53 69 36 - 29 170° 7 - 30.24 30.26 10 CLR None
2017-10-18 14:53 68 39 - 34 160° 6 - 30.27 30.28 10 CLR None
2017-10-18 13:53 66 40 - 38 180° 5 - 30.30 30.31 10 CLR 6-hr Min Temp (2pm): 42.1°F
6-hr Max Temp (2pm): 66.9°F
2017-10-18 12:53 63 40 - 42 Variable 3 - 30.33 30.34 10 CLR None
2017-10-18 11:53 60 39 - 45 - Calm - 30.35 30.37 10 CLR None
2017-10-18 10:53 57 40 - 52 150° 5 - 30.35 30.37 10 CLR None
2017-10-18 09:53 51 40 - 65 170° 3 - 30.36 30.38 10 CLR None
2017-10-18 08:53 45 39 44 79 160° 3 - 30.36 30.38 7 CLR None
2017-10-18 07:53 42 38 37 85 170° 8 - 30.33 30.36 8 CLR 6-hr Min Temp (8am): 39.9°F
6-hr Max Temp (8am): 48.0°F
2017-10-18 07:44 41 37 36 85 170° 7 - 30.33 - 3 BR CLR None
2017-10-18 07:34 40 36 34 85 170° 8 - 30.33 - 1 BR CLR None

Support USWX by starting your Amazon purchase here.